GB-0209 weather

Watchford Farm Airstrip
England, United Kingdom

Public forecast

Using degrees Celsius for public forecast. Weather courtesy of forecast.io.

Closest aviation weather report (METAR) to Watchford Farm Airstrip

Closest report is Exeter International Airport, 15.7 nm (29.0 km) SW. Retrieved 2019/10/23 19:20 UTC (21 minutes ago):

EGTE 231920Z 10004KT 6000 -RA FEW008 SCT040 11/11 Q1007

Closest aviation forecast (TAF) to Watchford Farm Airstrip

Forecast is more than 12 hours old.

Closest forecast is Exeter International Airport, 15.7 nm (29.0 km) SW. Retrieved 2012/04/19 12:15 UTC (8 years ago):

TAF TAF EGTE 191401Z 1912/1924 31016KT 9999 SCT030 SCT035 PROB40 TEMPO 1915/1918 7000 SHRA BKN014